sensor_id;sensor_type;location;lat;lon;timestamp;temperature;humidity
3778;DHT22;1904;50.076;8.660;2023-04-25T00:01:40;9.70;1.00
3778;DHT22;1904;50.076;8.660;2023-04-25T00:04:06;9.80;1.00
3778;DHT22;1904;50.076;8.660;2023-04-25T00:06:33;10.50;1.00
3778;DHT22;1904;50.076;8.660;2023-04-25T00:09:02;9.70;1.00
3778;DHT22;1904;50.076;8.660;2023-04-25T00:11:29;9.40;1.00
3778;DHT22;1904;50.076;8.660;2023-04-25T00:17:42;9.50;1.00
3778;DHT22;1904;50.076;8.660;2023-04-25T00:24:00;9.30;1.00
3778;DHT22;1904;50.076;8.660;2023-04-25T00:27:00;9.30;1.00
3778;DHT22;1904;50.076;8.660;2023-04-25T00:32:48;9.30;1.00
3778;DHT22;1904;50.076;8.660;2023-04-25T00:35:36;9.30;1.00
3778;DHT22;1904;50.076;8.660;2023-04-25T00:38:07;9.30;1.00
3778;DHT22;1904;50.076;8.660;2023-04-25T00:44:01;9.40;1.00
3778;DHT22;1904;50.076;8.660;2023-04-25T00:46:27;9.30;1.00
3778;DHT22;1904;50.076;8.660;2023-04-25T00:48:55;9.30;1.00
3778;DHT22;1904;50.076;8.660;2023-04-25T00:51:21;9.30;1.00
3778;DHT22;1904;50.076;8.660;2023-04-25T00:53:49;9.40;1.00
3778;DHT22;1904;50.076;8.660;2023-04-25T00:56:16;9.40;1.00
3778;DHT22;1904;50.076;8.660;2023-04-25T00:59:12;9.20;1.00
3778;DHT22;1904;50.076;8.660;2023-04-25T01:02:00;9.30;1.00
3778;DHT22;1904;50.076;8.660;2023-04-25T01:07:39;9.20;1.00
3778;DHT22;1904;50.076;8.660;2023-04-25T01:10:36;9.20;1.00
3778;DHT22;1904;50.076;8.660;2023-04-25T01:16:25;9.20;1.00
3778;DHT22;1904;50.076;8.660;2023-04-25T01:19:12;9.20;1.00
3778;DHT22;1904;50.076;8.660;2023-04-25T01:21:49;9.10;1.00
3778;DHT22;1904;50.076;8.660;2023-04-25T01:24:36;9.20;1.00
3778;DHT22;1904;50.076;8.660;2023-04-25T01:27:36;9.20;1.00
3778;DHT22;1904;50.076;8.660;2023-04-25T01:30:03;9.10;1.00
3778;DHT22;1904;50.076;8.660;2023-04-25T01:32:31;9.10;1.00
3778;DHT22;1904;50.076;8.660;2023-04-25T01:35:09;9.10;1.00
3778;DHT22;1904;50.076;8.660;2023-04-25T01:37:39;9.20;1.00
3778;DHT22;1904;50.076;8.660;2023-04-25T01:40:06;9.10;1.00
3778;DHT22;1904;50.076;8.660;2023-04-25T01:42:43;9.10;1.00
3778;DHT22;1904;50.076;8.660;2023-04-25T01:45:19;9.10;1.00
3778;DHT22;1904;50.076;8.660;2023-04-25T01:47:45;9.20;1.00
3778;DHT22;1904;50.076;8.660;2023-04-25T01:50:16;9.30;1.00
3778;DHT22;1904;50.076;8.660;2023-04-25T01:52:42;9.30;1.00
3778;DHT22;1904;50.076;8.660;2023-04-25T01:55:08;9.30;1.00
3778;DHT22;1904;50.076;8.660;2023-04-25T01:57:34;9.30;1.00
3778;DHT22;1904;50.076;8.660;2023-04-25T02:00:24;9.40;1.00
3778;DHT22;1904;50.076;8.660;2023-04-25T02:02:58;9.40;1.00
3778;DHT22;1904;50.076;8.660;2023-04-25T02:11:44;9.50;1.00
3778;DHT22;1904;50.076;8.660;2023-04-25T02:14:30;9.50;1.00
3778;DHT22;1904;50.076;8.660;2023-04-25T02:17:13;9.50;1.00
3778;DHT22;1904;50.076;8.660;2023-04-25T02:20:12;9.50;1.00
3778;DHT22;1904;50.076;8.660;2023-04-25T02:23:12;9.40;1.00
3778;DHT22;1904;50.076;8.660;2023-04-25T02:32:22;9.30;1.00
3778;DHT22;1904;50.076;8.660;2023-04-25T02:34:49;9.30;1.00
3778;DHT22;1904;50.076;8.660;2023-04-25T02:37:42;9.30;1.00
3778;DHT22;1904;50.076;8.660;2023-04-25T02:43:13;9.20;1.00
3778;DHT22;1904;50.076;8.660;2023-04-25T02:45:49;9.20;1.00
3778;DHT22;1904;50.076;8.660;2023-04-25T02:48:19;9.10;1.00
3778;DHT22;1904;50.076;8.660;2023-04-25T02:50:45;9.10;1.00
3778;DHT22;1904;50.076;8.660;2023-04-25T02:53:13;8.90;1.00
3778;DHT22;1904;50.076;8.660;2023-04-25T02:55:43;8.90;1.00
3778;DHT22;1904;50.076;8.660;2023-04-25T02:58:13;8.90;1.00
3778;DHT22;1904;50.076;8.660;2023-04-25T03:01:12;8.90;1.00
3778;DHT22;1904;50.076;8.660;2023-04-25T03:03:43;9.00;1.00
3778;DHT22;1904;50.076;8.660;2023-04-25T03:06:19;9.00;1.00
3778;DHT22;1904;50.076;8.660;2023-04-25T03:09:12;9.00;1.00
3778;DHT22;1904;50.076;8.660;2023-04-25T03:15:00;8.90;1.00
3778;DHT22;1904;50.076;8.660;2023-04-25T03:17:43;8.80;1.00
3778;DHT22;1904;50.076;8.660;2023-04-25T03:20:42;8.60;1.00
3778;DHT22;1904;50.076;8.660;2023-04-25T03:23:42;8.50;1.00
3778;DHT22;1904;50.076;8.660;2023-04-25T03:26:30;8.40;1.00
3778;DHT22;1904;50.076;8.660;2023-04-25T03:28:56;8.40;1.00
3778;DHT22;1904;50.076;8.660;2023-04-25T03:31:25;8.40;3.10
3778;DHT22;1904;50.076;8.660;2023-04-25T03:33:55;8.30;1.90
3778;DHT22;1904;50.076;8.660;2023-04-25T03:36:31;8.30;2.90
3778;DHT22;1904;50.076;8.660;2023-04-25T03:38:58;8.30;3.00
3778;DHT22;1904;50.076;8.660;2023-04-25T03:41:25;8.40;2.80
3778;DHT22;1904;50.076;8.660;2023-04-25T03:47:31;8.40;3.70
3778;DHT22;1904;50.076;8.660;2023-04-25T03:50:13;8.40;1.30
3778;DHT22;1904;50.076;8.660;2023-04-25T03:55:49;8.30;1.00
3778;DHT22;1904;50.076;8.660;2023-04-25T03:58:48;8.40;1.00
3778;DHT22;1904;50.076;8.660;2023-04-25T04:01:31;8.30;1.00
3778;DHT22;1904;50.076;8.660;2023-04-25T04:04:13;8.40;1.00
3778;DHT22;1904;50.076;8.660;2023-04-25T04:06:49;8.40;1.00
3778;DHT22;1904;50.076;8.660;2023-04-25T04:12:49;8.20;1.00
3778;DHT22;1904;50.076;8.660;2023-04-25T04:15:14;8.20;1.00
3778;DHT22;1904;50.076;8.660;2023-04-25T04:17:43;8.20;1.00
3778;DHT22;1904;50.076;8.660;2023-04-25T04:20:13;8.30;1.00
3778;DHT22;1904;50.076;8.660;2023-04-25T04:29:36;8.30;1.00
3778;DHT22;1904;50.076;8.660;2023-04-25T04:32:02;8.30;1.00
3778;DHT22;1904;50.076;8.660;2023-04-25T04:38:13;8.30;1.00
3778;DHT22;1904;50.076;8.660;2023-04-25T04:41:12;8.30;1.00
3778;DHT22;1904;50.076;8.660;2023-04-25T04:43:38;8.40;1.00
3778;DHT22;1904;50.076;8.660;2023-04-25T04:46:07;8.40;1.00
3778;DHT22;1904;50.076;8.660;2023-04-25T04:48:33;8.50;1.00
3778;DHT22;1904;50.076;8.660;2023-04-25T04:51:24;8.50;1.00
3778;DHT22;1904;50.076;8.660;2023-04-25T04:54:13;8.50;1.00
3778;DHT22;1904;50.076;8.660;2023-04-25T04:56:38;8.50;1.00
3778;DHT22;1904;50.076;8.660;2023-04-25T04:59:13;8.50;1.00
3778;DHT22;1904;50.076;8.660;2023-04-25T05:05:07;8.50;1.00
3778;DHT22;1904;50.076;8.660;2023-04-25T05:07:43;8.50;1.00
3778;DHT22;1904;50.076;8.660;2023-04-25T05:10:13;8.60;1.00
3778;DHT22;1904;50.076;8.660;2023-04-25T05:13:12;8.70;1.00
3778;DHT22;1904;50.076;8.660;2023-04-25T05:16:12;8.70;1.00
3778;DHT22;1904;50.076;8.660;2023-04-25T05:18:43;8.90;1.00
3778;DHT22;1904;50.076;8.660;2023-04-25T05:21:13;9.00;1.00
3778;DHT22;1904;50.076;8.660;2023-04-25T05:24:01;9.10;1.00
3778;DHT22;1904;50.076;8.660;2023-04-25T05:26:43;9.20;1.00
3778;DHT22;1904;50.076;8.660;2023-04-25T05:32:43;9.40;1.00
3778;DHT22;1904;50.076;8.660;2023-04-25T05:35:13;9.60;1.00
3778;DHT22;1904;50.076;8.660;2023-04-25T05:41:13;9.80;1.00
3778;DHT22;1904;50.076;8.660;2023-04-25T05:43:38;9.80;1.00
3778;DHT22;1904;50.076;8.660;2023-04-25T05:46:13;9.90;1.00
3778;DHT22;1904;50.076;8.660;2023-04-25T05:49:12;10.10;1.00
3778;DHT22;1904;50.076;8.660;2023-04-25T05:51:43;10.20;1.00
3778;DHT22;1904;50.076;8.660;2023-04-25T05:57:30;10.40;1.00
3778;DHT22;1904;50.076;8.660;2023-04-25T06:00:13;10.60;1.00
3778;DHT22;1904;50.076;8.660;2023-04-25T06:03:12;10.80;1.00
3778;DHT22;1904;50.076;8.660;2023-04-25T06:05:42;10.90;1.00
3778;DHT22;1904;50.076;8.660;2023-04-25T06:08:13;11.00;1.00
3778;DHT22;1904;50.076;8.660;2023-04-25T06:11:12;11.10;1.00
3778;DHT22;1904;50.076;8.660;2023-04-25T06:13:43;11.20;1.00
3778;DHT22;1904;50.076;8.660;2023-04-25T06:16:13;11.30;1.00
3778;DHT22;1904;50.076;8.660;2023-04-25T06:18:39;11.40;1.00
3778;DHT22;1904;50.076;8.660;2023-04-25T06:21:04;11.40;1.00
3778;DHT22;1904;50.076;8.660;2023-04-25T06:23:30;11.30;1.00
3778;DHT22;1904;50.076;8.660;2023-04-25T06:25:56;11.50;1.00
3778;DHT22;1904;50.076;8.660;2023-04-25T06:28:22;11.50;1.00
3778;DHT22;1904;50.076;8.660;2023-04-25T06:31:24;11.60;1.00
3778;DHT22;1904;50.076;8.660;2023-04-25T06:33:55;11.60;1.00
3778;DHT22;1904;50.076;8.660;2023-04-25T06:36:21;11.60;1.00
3778;DHT22;1904;50.076;8.660;2023-04-25T06:39:12;11.40;1.00
3778;DHT22;1904;50.076;8.660;2023-04-25T06:41:43;11.50;1.00
3778;DHT22;1904;50.076;8.660;2023-04-25T06:44:13;11.60;1.00
3778;DHT22;1904;50.076;8.660;2023-04-25T06:46:43;11.80;1.00
3778;DHT22;1904;50.076;8.660;2023-04-25T06:49:19;11.90;1.00
3778;DHT22;1904;50.076;8.660;2023-04-25T06:52:12;11.90;1.00
3778;DHT22;1904;50.076;8.660;2023-04-25T06:54:43;11.40;1.00
3778;DHT22;1904;50.076;8.660;2023-04-25T06:57:09;11.60;1.00
3778;DHT22;1904;50.076;8.660;2023-04-25T06:59:34;11.90;1.00
3778;DHT22;1904;50.076;8.660;2023-04-25T07:02:13;12.10;1.00
3778;DHT22;1904;50.076;8.660;2023-04-25T07:04:43;12.20;1.00
3778;DHT22;1904;50.076;8.660;2023-04-25T07:10:42;12.40;1.00
3778;DHT22;1904;50.076;8.660;2023-04-25T07:13:13;12.50;1.00
3778;DHT22;1904;50.076;8.660;2023-04-25T07:15:43;12.30;1.00
3778;DHT22;1904;50.076;8.660;2023-04-25T07:18:13;12.30;1.00
3778;DHT22;1904;50.076;8.660;2023-04-25T07:20:43;12.30;1.00
3778;DHT22;1904;50.076;8.660;2023-04-25T07:23:42;12.40;1.00
3778;DHT22;1904;50.076;8.660;2023-04-25T07:26:18;12.20;1.00
3778;DHT22;1904;50.076;8.660;2023-04-25T07:32:36;11.60;1.00
3778;DHT22;1904;50.076;8.660;2023-04-25T07:35:13;11.50;1.00
3778;DHT22;1904;50.076;8.660;2023-04-25T07:37:43;11.50;1.00
3778;DHT22;1904;50.076;8.660;2023-04-25T07:43:13;11.20;1.00
3778;DHT22;1904;50.076;8.660;2023-04-25T07:45:44;11.20;1.00
3778;DHT22;1904;50.076;8.660;2023-04-25T07:48:09;11.10;1.00
3778;DHT22;1904;50.076;8.660;2023-04-25T07:50:43;10.90;1.00
3778;DHT22;1904;50.076;8.660;2023-04-25T07:56:36;10.80;1.00
3778;DHT22;1904;50.076;8.660;2023-04-25T07:59:13;11.00;1.00
3778;DHT22;1904;50.076;8.660;2023-04-25T08:01:43;11.20;1.00
3778;DHT22;1904;50.076;8.660;2023-04-25T08:04:13;11.30;1.00
3778;DHT22;1904;50.076;8.660;2023-04-25T08:07:06;11.60;1.00
3778;DHT22;1904;50.076;8.660;2023-04-25T08:09:37;11.90;1.00
3778;DHT22;1904;50.076;8.660;2023-04-25T08:12:13;12.00;1.00
3778;DHT22;1904;50.076;8.660;2023-04-25T08:14:43;12.30;1.00
3778;DHT22;1904;50.076;8.660;2023-04-25T08:17:13;12.50;1.00
3778;DHT22;1904;50.076;8.660;2023-04-25T08:19:44;13.00;1.00
3778;DHT22;1904;50.076;8.660;2023-04-25T08:22:10;13.30;1.00
3778;DHT22;1904;50.076;8.660;2023-04-25T08:27:57;13.60;1.00
3778;DHT22;1904;50.076;8.660;2023-04-25T08:33:47;13.40;1.00
3778;DHT22;1904;50.076;8.660;2023-04-25T08:36:13;13.50;1.00
3778;DHT22;1904;50.076;8.660;2023-04-25T08:38:43;13.60;1.00
3778;DHT22;1904;50.076;8.660;2023-04-25T08:41:30;13.70;1.00
3778;DHT22;1904;50.076;8.660;2023-04-25T08:44:13;13.70;1.00
3778;DHT22;1904;50.076;8.660;2023-04-25T08:46:46;13.50;1.00
3778;DHT22;1904;50.076;8.660;2023-04-25T08:52:44;13.20;1.00
3778;DHT22;1904;50.076;8.660;2023-04-25T08:55:18;13.50;1.00
3778;DHT22;1904;50.076;8.660;2023-04-25T08:57:44;13.70;1.00
3778;DHT22;1904;50.076;8.660;2023-04-25T09:00:13;13.90;1.00
3778;DHT22;1904;50.076;8.660;2023-04-25T09:02:49;14.00;1.00
3778;DHT22;1904;50.076;8.660;2023-04-25T09:05:19;14.10;1.00
3778;DHT22;1904;50.076;8.660;2023-04-25T09:08:13;14.10;1.00
3778;DHT22;1904;50.076;8.660;2023-04-25T09:10:43;14.10;1.00
3778;DHT22;1904;50.076;8.660;2023-04-25T09:13:14;14.20;1.00
3778;DHT22;1904;50.076;8.660;2023-04-25T09:15:53;14.00;1.00
3778;DHT22;1904;50.076;8.660;2023-04-25T09:18:42;14.00;1.00
3778;DHT22;1904;50.076;8.660;2023-04-25T09:21:13;13.90;1.00
3778;DHT22;1904;50.076;8.660;2023-04-25T09:23:47;14.00;1.00
3778;DHT22;1904;50.076;8.660;2023-04-25T09:26:18;14.00;1.00
3778;DHT22;1904;50.076;8.660;2023-04-25T09:28:45;14.10;1.00
3778;DHT22;1904;50.076;8.660;2023-04-25T09:31:11;14.30;1.00
3778;DHT22;1904;50.076;8.660;2023-04-25T09:33:37;14.50;1.00
3778;DHT22;1904;50.076;8.660;2023-04-25T09:36:08;14.30;1.00
3778;DHT22;1904;50.076;8.660;2023-04-25T09:38:45;14.40;1.00
3778;DHT22;1904;50.076;8.660;2023-04-25T09:41:11;14.80;1.00
3778;DHT22;1904;50.076;8.660;2023-04-25T09:43:38;14.70;1.00
3778;DHT22;1904;50.076;8.660;2023-04-25T09:46:09;14.80;1.00
3778;DHT22;1904;50.076;8.660;2023-04-25T09:48:35;14.80;1.00
3778;DHT22;1904;50.076;8.660;2023-04-25T09:53:30;15.10;1.00
3778;DHT22;1904;50.076;8.660;2023-04-25T09:56:04;14.80;1.00
3778;DHT22;1904;50.076;8.660;2023-04-25T09:58:34;15.10;1.00
3778;DHT22;1904;50.076;8.660;2023-04-25T10:01:04;15.10;1.00
3778;DHT22;1904;50.076;8.660;2023-04-25T10:03:31;15.10;1.00
3778;DHT22;1904;50.076;8.660;2023-04-25T10:05:59;15.10;1.00
3778;DHT22;1904;50.076;8.660;2023-04-25T10:08:31;15.20;1.00
3778;DHT22;1904;50.076;8.660;2023-04-25T10:11:23;15.10;1.00
3778;DHT22;1904;50.076;8.660;2023-04-25T10:13:48;15.00;1.00
3778;DHT22;1904;50.076;8.660;2023-04-25T10:16:17;14.80;1.00
3778;DHT22;1904;50.076;8.660;2023-04-25T10:18:44;14.90;1.00
3778;DHT22;1904;50.076;8.660;2023-04-25T10:21:10;14.90;1.00
3778;DHT22;1904;50.076;8.660;2023-04-25T10:23:36;15.00;1.00
3778;DHT22;1904;50.076;8.660;2023-04-25T10:26:03;15.30;1.00
3778;DHT22;1904;50.076;8.660;2023-04-25T10:28:29;15.40;1.00
3778;DHT22;1904;50.076;8.660;2023-04-25T10:31:00;15.60;1.00
3778;DHT22;1904;50.076;8.660;2023-04-25T10:33:39;15.90;1.00
3778;DHT22;1904;50.076;8.660;2023-04-25T10:36:20;16.00;1.00
3778;DHT22;1904;50.076;8.660;2023-04-25T10:38:50;16.00;1.00
3778;DHT22;1904;50.076;8.660;2023-04-25T10:41:18;15.80;1.00
3778;DHT22;1904;50.076;8.660;2023-04-25T10:43:45;15.60;1.00
3778;DHT22;1904;50.076;8.660;2023-04-25T10:46:29;15.40;1.00
3778;DHT22;1904;50.076;8.660;2023-04-25T10:48:58;15.20;1.00
3778;DHT22;1904;50.076;8.660;2023-04-25T10:51:31;15.00;1.00
3778;DHT22;1904;50.076;8.660;2023-04-25T10:54:06;14.30;1.00
3778;DHT22;1904;50.076;8.660;2023-04-25T10:56:41;14.10;1.00
3778;DHT22;1904;50.076;8.660;2023-04-25T11:01:47;13.90;1.00
3778;DHT22;1904;50.076;8.660;2023-04-25T11:04:36;13.90;1.00
3778;DHT22;1904;50.076;8.660;2023-04-25T11:10:29;14.00;1.00
3778;DHT22;1904;50.076;8.660;2023-04-25T11:13:01;14.20;1.00
3778;DHT22;1904;50.076;8.660;2023-04-25T11:15:37;14.50;1.00
3778;DHT22;1904;50.076;8.660;2023-04-25T11:18:03;14.60;1.00
3778;DHT22;1904;50.076;8.660;2023-04-25T11:20:29;14.70;1.00
3778;DHT22;1904;50.076;8.660;2023-04-25T11:23:01;14.60;1.00
3778;DHT22;1904;50.076;8.660;2023-04-25T11:25:31;14.70;1.00
3778;DHT22;1904;50.076;8.660;2023-04-25T11:28:01;14.60;1.00
3778;DHT22;1904;50.076;8.660;2023-04-25T11:30:27;14.40;1.00
3778;DHT22;1904;50.076;8.660;2023-04-25T11:32:54;14.20;1.00
3778;DHT22;1904;50.076;8.660;2023-04-25T11:35:20;14.00;1.00
3778;DHT22;1904;50.076;8.660;2023-04-25T11:37:48;13.80;1.00
3778;DHT22;1904;50.076;8.660;2023-04-25T11:40:15;13.80;1.00
3778;DHT22;1904;50.076;8.660;2023-04-25T11:42:47;13.80;1.00
3778;DHT22;1904;50.076;8.660;2023-04-25T11:45:19;14.10;1.00
3778;DHT22;1904;50.076;8.660;2023-04-25T11:48:01;14.10;1.00
3778;DHT22;1904;50.076;8.660;2023-04-25T11:50:39;14.20;1.00
3778;DHT22;1904;50.076;8.660;2023-04-25T11:53:05;14.60;1.00
3778;DHT22;1904;50.076;8.660;2023-04-25T11:55:31;14.70;1.00
3778;DHT22;1904;50.076;8.660;2023-04-25T11:58:00;14.90;1.00
3778;DHT22;1904;50.076;8.660;2023-04-25T12:00:31;14.90;1.00
3778;DHT22;1904;50.076;8.660;2023-04-25T12:02:58;15.00;1.00
3778;DHT22;1904;50.076;8.660;2023-04-25T12:05:37;14.80;1.00
3778;DHT22;1904;50.076;8.660;2023-04-25T12:08:14;14.70;1.00
3778;DHT22;1904;50.076;8.660;2023-04-25T12:10:41;14.50;1.00
3778;DHT22;1904;50.076;8.660;2023-04-25T12:13:26;14.70;1.00
3778;DHT22;1904;50.076;8.660;2023-04-25T12:15:56;14.90;1.00
3778;DHT22;1904;50.076;8.660;2023-04-25T12:18:25;15.10;1.00
3778;DHT22;1904;50.076;8.660;2023-04-25T12:20:53;15.10;1.00
3778;DHT22;1904;50.076;8.660;2023-04-25T12:23:49;15.10;1.00
3778;DHT22;1904;50.076;8.660;2023-04-25T12:26:25;14.50;1.00
3778;DHT22;1904;50.076;8.660;2023-04-25T12:29:01;14.60;1.00
3778;DHT22;1904;50.076;8.660;2023-04-25T12:31:31;14.50;1.00
3778;DHT22;1904;50.076;8.660;2023-04-25T12:33:58;14.50;1.00
3778;DHT22;1904;50.076;8.660;2023-04-25T12:36:25;14.40;1.00
3778;DHT22;1904;50.076;8.660;2023-04-25T12:38:51;14.20;1.00
3778;DHT22;1904;50.076;8.660;2023-04-25T12:41:25;14.10;1.00
3778;DHT22;1904;50.076;8.660;2023-04-25T12:43:50;14.00;1.00
3778;DHT22;1904;50.076;8.660;2023-04-25T12:46:25;14.10;1.00
3778;DHT22;1904;50.076;8.660;2023-04-25T12:48:55;14.10;1.00
3778;DHT22;1904;50.076;8.660;2023-04-25T12:51:31;14.20;1.00
3778;DHT22;1904;50.076;8.660;2023-04-25T12:53:59;14.20;1.00
3778;DHT22;1904;50.076;8.660;2023-04-25T12:56:26;14.50;1.00
3778;DHT22;1904;50.076;8.660;2023-04-25T12:58:53;14.50;1.00
3778;DHT22;1904;50.076;8.660;2023-04-25T13:01:20;14.60;1.00
3778;DHT22;1904;50.076;8.660;2023-04-25T13:03:46;14.70;1.00
3778;DHT22;1904;50.076;8.660;2023-04-25T13:06:13;14.40;1.00
3778;DHT22;1904;50.076;8.660;2023-04-25T13:12:07;14.80;1.00
3778;DHT22;1904;50.076;8.660;2023-04-25T13:14:33;15.40;1.00
3778;DHT22;1904;50.076;8.660;2023-04-25T13:17:01;15.50;1.00
3778;DHT22;1904;50.076;8.660;2023-04-25T13:19:31;15.40;1.00
3778;DHT22;1904;50.076;8.660;2023-04-25T13:28:33;15.50;1.00
3778;DHT22;1904;50.076;8.660;2023-04-25T13:30:58;15.40;1.00
3778;DHT22;1904;50.076;8.660;2023-04-25T13:33:24;15.40;1.00
3778;DHT22;1904;50.076;8.660;2023-04-25T13:36:13;15.50;1.00
3778;DHT22;1904;50.076;8.660;2023-04-25T13:45:25;15.70;1.00
3778;DHT22;1904;50.076;8.660;2023-04-25T13:48:19;15.30;1.00
3778;DHT22;1904;50.076;8.660;2023-04-25T13:50:45;15.60;1.00
3778;DHT22;1904;50.076;8.660;2023-04-25T13:53:13;15.60;1.00
3778;DHT22;1904;50.076;8.660;2023-04-25T13:55:43;15.50;1.00
3778;DHT22;1904;50.076;8.660;2023-04-25T13:58:09;15.50;1.00
3778;DHT22;1904;50.076;8.660;2023-04-25T14:00:38;15.60;1.00
3778;DHT22;1904;50.076;8.660;2023-04-25T14:03:07;15.80;1.00
3778;DHT22;1904;50.076;8.660;2023-04-25T14:08:43;16.00;1.00
3778;DHT22;1904;50.076;8.660;2023-04-25T14:11:13;16.10;1.00
3778;DHT22;1904;50.076;8.660;2023-04-25T14:13:44;15.80;1.00
3778;DHT22;1904;50.076;8.660;2023-04-25T14:16:13;15.90;1.00
3778;DHT22;1904;50.076;8.660;2023-04-25T14:18:39;15.80;1.00
3778;DHT22;1904;50.076;8.660;2023-04-25T14:21:05;16.10;1.00
3778;DHT22;1904;50.076;8.660;2023-04-25T14:23:37;16.20;1.00
3778;DHT22;1904;50.076;8.660;2023-04-25T14:26:13;16.30;1.00
3778;DHT22;1904;50.076;8.660;2023-04-25T14:29:13;16.30;1.00
3778;DHT22;1904;50.076;8.660;2023-04-25T14:31:43;16.40;1.00
3778;DHT22;1904;50.076;8.660;2023-04-25T14:34:13;16.50;1.00
3778;DHT22;1904;50.076;8.660;2023-04-25T14:36:43;16.20;1.00
3778;DHT22;1904;50.076;8.660;2023-04-25T14:39:13;15.80;1.00
3778;DHT22;1904;50.076;8.660;2023-04-25T14:41:55;15.60;1.00
3778;DHT22;1904;50.076;8.660;2023-04-25T14:47:43;15.60;1.00
3778;DHT22;1904;50.076;8.660;2023-04-25T14:50:13;15.00;1.00
3778;DHT22;1904;50.076;8.660;2023-04-25T14:53:13;14.70;1.00
3778;DHT22;1904;50.076;8.660;2023-04-25T14:55:55;14.50;1.00
3778;DHT22;1904;50.076;8.660;2023-04-25T14:58:21;14.50;1.00
3778;DHT22;1904;50.076;8.660;2023-04-25T15:01:13;14.40;1.00
3778;DHT22;1904;50.076;8.660;2023-04-25T15:03:43;14.50;1.00
3778;DHT22;1904;50.076;8.660;2023-04-25T15:06:13;14.50;1.00
3778;DHT22;1904;50.076;8.660;2023-04-25T15:08:43;14.60;1.00
3778;DHT22;1904;50.076;8.660;2023-04-25T15:11:13;14.60;1.00
3778;DHT22;1904;50.076;8.660;2023-04-25T15:13:43;14.10;1.00
3778;DHT22;1904;50.076;8.660;2023-04-25T15:16:13;14.00;1.00
3778;DHT22;1904;50.076;8.660;2023-04-25T15:18:43;14.20;1.00
3778;DHT22;1904;50.076;8.660;2023-04-25T15:21:13;14.40;1.00
3778;DHT22;1904;50.076;8.660;2023-04-25T15:27:01;14.60;1.00
3778;DHT22;1904;50.076;8.660;2023-04-25T15:29:43;14.70;1.00
3778;DHT22;1904;50.076;8.660;2023-04-25T15:32:13;14.60;1.00
3778;DHT22;1904;50.076;8.660;2023-04-25T15:35:02;14.50;1.00
3778;DHT22;1904;50.076;8.660;2023-04-25T15:37:43;14.60;1.00
3778;DHT22;1904;50.076;8.660;2023-04-25T15:43:37;16.50;1.00
3778;DHT22;1904;50.076;8.660;2023-04-25T15:46:13;18.90;1.00
3778;DHT22;1904;50.076;8.660;2023-04-25T15:48:43;19.70;1.00
3778;DHT22;1904;50.076;8.660;2023-04-25T15:51:14;19.40;1.00
3778;DHT22;1904;50.076;8.660;2023-04-25T15:53:43;18.90;1.00
3778;DHT22;1904;50.076;8.660;2023-04-25T15:56:43;18.50;1.00
3778;DHT22;1904;50.076;8.660;2023-04-25T15:59:10;18.00;1.00
3778;DHT22;1904;50.076;8.660;2023-04-25T16:01:43;18.50;1.00
3778;DHT22;1904;50.076;8.660;2023-04-25T16:04:09;19.40;1.00
3778;DHT22;1904;50.076;8.660;2023-04-25T16:06:43;20.10;1.00
3778;DHT22;1904;50.076;8.660;2023-04-25T16:16:13;23.20;1.00
3778;DHT22;1904;50.076;8.660;2023-04-25T16:18:43;23.50;1.00
3778;DHT22;1904;50.076;8.660;2023-04-25T16:21:13;23.60;1.00
3778;DHT22;1904;50.076;8.660;2023-04-25T16:23:43;24.50;1.00
3778;DHT22;1904;50.076;8.660;2023-04-25T16:29:43;25.80;1.00
3778;DHT22;1904;50.076;8.660;2023-04-25T16:32:13;25.90;1.00
3778;DHT22;1904;50.076;8.660;2023-04-25T16:34:43;24.80;1.00
3778;DHT22;1904;50.076;8.660;2023-04-25T16:40:37;23.00;1.00
3778;DHT22;1904;50.076;8.660;2023-04-25T16:43:31;22.70;1.00
3778;DHT22;1904;50.076;8.660;2023-04-25T16:52:41;20.40;1.00
3778;DHT22;1904;50.076;8.660;2023-04-25T16:55:18;19.70;1.00
3778;DHT22;1904;50.076;8.660;2023-04-25T16:57:44;19.40;1.00
3778;DHT22;1904;50.076;8.660;2023-04-25T17:00:19;18.60;1.00
3778;DHT22;1904;50.076;8.660;2023-04-25T17:03:07;17.40;1.00
3778;DHT22;1904;50.076;8.660;2023-04-25T17:08:55;16.50;1.00
3778;DHT22;1904;50.076;8.660;2023-04-25T17:11:49;15.90;1.00
3778;DHT22;1904;50.076;8.660;2023-04-25T17:17:37;15.20;1.00
3778;DHT22;1904;50.076;8.660;2023-04-25T17:23:24;14.60;1.00
3778;DHT22;1904;50.076;8.660;2023-04-25T17:35:55;13.60;1.00
3778;DHT22;1904;50.076;8.660;2023-04-25T17:45:06;13.10;1.00
3778;DHT22;1904;50.076;8.660;2023-04-25T17:48:07;12.80;1.00
3778;DHT22;1904;50.076;8.660;2023-04-25T17:50:55;12.60;1.00
3778;DHT22;1904;50.076;8.660;2023-04-25T18:00:03;12.10;1.00
3778;DHT22;1904;50.076;8.660;2023-04-25T18:02:49;11.80;1.00
3778;DHT22;1904;50.076;8.660;2023-04-25T18:08:37;11.60;1.00
3778;DHT22;1904;50.076;8.660;2023-04-25T18:11:19;11.60;1.00
3778;DHT22;1904;50.076;8.660;2023-04-25T18:13:49;11.40;1.00
3778;DHT22;1904;50.076;8.660;2023-04-25T18:23:01;11.20;1.00
3778;DHT22;1904;50.076;8.660;2023-04-25T18:32:11;11.00;1.00
3778;DHT22;1904;50.076;8.660;2023-04-25T18:35:01;10.90;1.00
3778;DHT22;1904;50.076;8.660;2023-04-25T18:37:55;10.80;1.00
3778;DHT22;1904;50.076;8.660;2023-04-25T18:40:37;10.70;1.00
3778;DHT22;1904;50.076;8.660;2023-04-25T18:43:13;10.60;1.00
3778;DHT22;1904;50.076;8.660;2023-04-25T18:45:43;10.50;1.00
3778;DHT22;1904;50.076;8.660;2023-04-25T18:51:31;10.30;1.00
3778;DHT22;1904;50.076;8.660;2023-04-25T18:57:25;10.10;1.00
3778;DHT22;1904;50.076;8.660;2023-04-25T19:09:25;9.70;1.00
3778;DHT22;1904;50.076;8.660;2023-04-25T19:11:56;9.60;1.00
3778;DHT22;1904;50.076;8.660;2023-04-25T19:14:25;9.50;1.00
3778;DHT22;1904;50.076;8.660;2023-04-25T19:17:13;9.50;1.00
3778;DHT22;1904;50.076;8.660;2023-04-25T19:20:13;9.40;1.00
3778;DHT22;1904;50.076;8.660;2023-04-25T19:22:55;9.30;1.00
3778;DHT22;1904;50.076;8.660;2023-04-25T19:25:55;9.30;1.00
3778;DHT22;1904;50.076;8.660;2023-04-25T19:28:43;9.20;1.00
3778;DHT22;1904;50.076;8.660;2023-04-25T19:31:09;9.20;1.00
3778;DHT22;1904;50.076;8.660;2023-04-25T19:33:55;9.20;1.00
3778;DHT22;1904;50.076;8.660;2023-04-25T19:46:21;9.10;1.00
3778;DHT22;1904;50.076;8.660;2023-04-25T19:48:56;9.10;1.00
3778;DHT22;1904;50.076;8.660;2023-04-25T19:51:37;9.10;1.00
3778;DHT22;1904;50.076;8.660;2023-04-25T19:54:04;9.00;1.00
3778;DHT22;1904;50.076;8.660;2023-04-25T20:00:25;9.00;1.00
3778;DHT22;1904;50.076;8.660;2023-04-25T20:03:07;9.00;1.00
3778;DHT22;1904;50.076;8.660;2023-04-25T20:19:25;8.70;1.00
3778;DHT22;1904;50.076;8.660;2023-04-25T20:22:25;8.60;1.00
3778;DHT22;1904;50.076;8.660;2023-04-25T20:24:55;8.50;1.00
3778;DHT22;1904;50.076;8.660;2023-04-25T20:27:25;8.60;1.00
3778;DHT22;1904;50.076;8.660;2023-04-25T20:29:51;8.40;1.00
3778;DHT22;1904;50.076;8.660;2023-04-25T20:32:17;8.40;1.00
3778;DHT22;1904;50.076;8.660;2023-04-25T20:34:42;8.40;1.00
3778;DHT22;1904;50.076;8.660;2023-04-25T20:37:08;8.20;1.00
3778;DHT22;1904;50.076;8.660;2023-04-25T20:39:34;8.10;1.00
3778;DHT22;1904;50.076;8.660;2023-04-25T20:42:00;8.10;1.00
3778;DHT22;1904;50.076;8.660;2023-04-25T20:44:26;8.00;1.00
3778;DHT22;1904;50.076;8.660;2023-04-25T20:46:55;7.90;1.00
3778;DHT22;1904;50.076;8.660;2023-04-25T20:49:25;7.70;1.00
3778;DHT22;1904;50.076;8.660;2023-04-25T20:51:51;7.70;1.00
3778;DHT22;1904;50.076;8.660;2023-04-25T20:54:31;7.60;1.00
3778;DHT22;1904;50.076;8.660;2023-04-25T20:57:13;7.50;1.00
3778;DHT22;1904;50.076;8.660;2023-04-25T20:59:49;7.40;1.00
3778;DHT22;1904;50.076;8.660;2023-04-25T21:05:25;7.20;1.00
3778;DHT22;1904;50.076;8.660;2023-04-25T21:07:55;7.20;1.00
3778;DHT22;1904;50.076;8.660;2023-04-25T21:10:37;7.00;1.00
3778;DHT22;1904;50.076;8.660;2023-04-25T21:13:07;6.90;1.00
3778;DHT22;1904;50.076;8.660;2023-04-25T21:15:43;6.80;1.00
3778;DHT22;1904;50.076;8.660;2023-04-25T21:18:25;6.70;1.00
3778;DHT22;1904;50.076;8.660;2023-04-25T21:21:07;6.70;1.00
3778;DHT22;1904;50.076;8.660;2023-04-25T21:23:37;6.60;1.00